Wetterdaten: Juli 2009
Datum Temp Feuchte Luftdruck Regen Wind Richtung Sonnenschein UV Solar Windben
01.07.2009 22,5 C 73 % 1019,8 hPa 0,0 l/m 1,7 km/h N-NO 9,33 h 2,9 UV-I 372 W/m 4,4 km/h
02.07.2009 23,3 C 71 % 1016,5 hPa 0,0 l/m 1,2 km/h N-NO 10,42 h 3,0 UV-I 389 W/m 2,8 km/h
03.07.2009 22,4 C 76 % 1011,8 hPa 0,0 l/m 2,2 km/h SO 9,00 h 3,4 UV-I 408 W/m 8,4 km/h
04.07.2009 20,7 C 69 % 1011,3 hPa 0,0 l/m 3,8 km/h W-NW 6,58 h 3,1 UV-I 348 W/m 9,3 km/h
05.07.2009 20,0 C 62 % 1009,4 hPa 0,0 l/m 2,0 km/h N-NW 12,83 h 4,0 UV-I 481 W/m 5,2 km/h
06.07.2009 17,1 C 83 % 1006,7 hPa 9,8 l/m 4,0 km/h S 4,75 h 3,6 UV-I 329 W/m 10,1 km/h
07.07.2009 15,0 C 81 % 1005,1 hPa 2,8 l/m 5,1 km/h S 4,75 h 2,5 UV-I 283 W/m 12,5 km/h
08.07.2009 13,3 C 93 % 1006,5 hPa 10,2 l/m 10,3 km/h S 1,17 h 1,9 UV-I 190 W/m 21,7 km/h
09.07.2009 12,5 C 86 % 1011,8 hPa 0,2 l/m 4,9 km/h W 3,42 h 2,4 UV-I 260 W/m 12,4 km/h
10.07.2009 11,3 C 93 % 1011,7 hPa 15,0 l/m 12,4 km/h S 0,17 h 1,0 UV-I 91 W/m 24,5 km/h
11.07.2009 12,8 C 89 % 1013,8 hPa 13,2 l/m 5,1 km/h S 1,42 h 1,9 UV-I 172 W/m 11,7 km/h
12.07.2009 16,1 C 92 % 1010,2 hPa 3,4 l/m 8,9 km/h S 1,08 h 1,7 UV-I 159 W/m 16,9 km/h
13.07.2009 16,2 C 81 % 1011,9 hPa 0,2 l/m 2,6 km/h S 7,58 h 3,1 UV-I 316 W/m 5,6 km/h
14.07.2009 20,3 C 76 % 1011,1 hPa 0,4 l/m 1,3 km/h S 7,17 h 3,2 UV-I 361 W/m 3,6 km/h
15.07.2009 21,1 C 67 % 1016,5 hPa 0,2 l/m 4,2 km/h S 8,58 h 3,1 UV-I 377 W/m 11,2 km/h
16.07.2009 19,2 C 75 % 1019,6 hPa 0,0 l/m 0,8 km/h W-NW 10,25 h 3,0 UV-I 380 W/m 3,2 km/h
17.07.2009 19,1 C 68 % 1008,6 hPa 1,6 l/m 7,4 km/h S 2,83 h 2,3 UV-I 235 W/m 13,3 km/h
18.07.2009 14,8 C 83 % 1009,2 hPa 2,4 l/m 5,1 km/h S 1,42 h 1,7 UV-I 152 W/m 13,3 km/h
19.07.2009 13,1 C 92 % 1013,6 hPa 9,2 l/m 3,6 km/h S 3,50 h 2,4 UV-I 229 W/m 8,1 km/h
20.07.2009 14,5 C 84 % 1015,5 hPa 1,4 l/m 9,8 km/h S 3,75 h 2,0 UV-I 248 W/m 17,7 km/h
21.07.2009 19,1 C 79 % 1011,3 hPa 23,2 l/m 3,1 km/h S 7,83 h 3,1 UV-I 367 W/m 6,4 km/h
22.07.2009 20,1 C 83 % 1006,2 hPa 9,0 l/m 8,2 km/h S 3,58 h 2,5 UV-I 245 W/m 14,5 km/h
23.07.2009 17,5 C 91 % 1004,6 hPa 8,2 l/m 4,9 km/h S 2,17 h 1,8 UV-I 165 W/m 10,0 km/h
24.07.2009 16,2 C 80 % 1012,4 hPa 4,4 l/m 6,9 km/h S 6,52 h 2,8 UV-I 358 W/m 20,1 km/h
25.07.2009 14,6 C 89 % 1019,5 hPa 21,6 l/m 5,4 km/h S 2,67 h 2,2 UV-I 205 W/m 15,3 km/h
26.07.2009 15,7 C 78 % 1019,7 hPa 0,0 l/m 2,9 km/h S 10,08 h 3,1 UV-I 398 W/m 7,2 km/h
27.07.2009 19,5 C 74 % 1011,7 hPa 0,6 l/m 5,4 km/h S 9,92 h 3,7 UV-I 430 W/m 11,6 km/h
28.07.2009 15,5 C 77 % 1020,2 hPa 0,0 l/m 2,5 km/h NW 6,42 h 3,0 UV-I 352 W/m 7,7 km/h
29.07.2009 19,8 C 66 % 1016,2 hPa 0,0 l/m 4,7 km/h S-SO 8,50 h 3,2 UV-I 361 W/m 9,3 km/h
30.07.2009 16,4 C 75 % 1018,2 hPa 4,2 l/m 5,9 km/h S 7,58 h 2,9 UV-I 359 W/m 14,9 km/h
31.07.2009 13,6 C 80 % 1022,5 hPa 0,0 l/m 1,7 km/h S 8,83 h 2,6 UV-I 348 W/m 3,2 km/h
Min-Datum 26.07.09 05.07.09 23.07.09 21 Tage 01.07.09 - - - - 01.07.09
Min-Zeit 05:50 16:30 12:15 - 00:00 - - - - 00:00
Minimum 8,2 C 31 % 1001,0 hPa - 0,0 km/h - - - - 0,0 km/h
Max-Datum 03.07.09 12.07.09 31.07.09 21.07.09 22.07.09 - 05.07.09 14.07.09 24.07.09 21.07.09
Max-Zeit 16:00 00:10 10:45 22:50 07:20 - 20:05 13:30 12:30 22:50
Maximum 29,3 C 98 % 1024,4 hPa 23,2 l/m 32,7 km/h
S
- 12,75 h 7,7 UV-I 1130 W/m 64,4 km/h
S
Durchschnitt 17,2 C 79 % 1013,0 hPa #141,2 l/m 4,8 km/h S #184:06 h 2,7 UV-I 302 W/m 10,8 km/h

Durchschnitt Minimum Temp.11,8 C
Durchschnitt Maximum Temp.22,5 C